M/V Wayne T Mosley — WDF2092 — position and weather

sailwx.info

Track history (hours):
 
Tides and Currents Weather Stations Pressure Air Temp Water Temp Dewpoint Dewpoint Depression Visibility Wind Speed Wind Dir Waves Ship Positions

M/V Wayne T Mosley

Owner: Blessey Enterprises Inc., Harahan, LA. More information available from US FCC via Universal Licensing System and Coast Guard Vessel Documentation Center.

Last reported at 2018-May-11 04:09 UTC. Time now 2018-May-22 21:36 UTC.
Position N 29°33' W 090°24'.
Warning: this ship's position is 11 days out of date.

Length 25 m; draft 3 m.

Type: Towing. MMSI: 367424750.

Date/timePositionNaut miles runAvg speedWind from/ knotsBaromVisibWave heightAir tempDewpointWater temp
2018-May-11 04:09N 29°33' W 090°24'1 4.7
2018-May-11 03:59N 29°33' W 090°25'2 4.8
2018-May-11 03:29N 29°33' W 090°27'2 5.3
2018-May-11 03:00N 29°34' W 090°30'3 5.2
2018-May-11 02:30N 29°34' W 090°33'2 4.6
2018-May-11 02:01N 29°35' W 090°36'2 4.3
2018-May-11 01:31N 29°35' W 090°38'2 4.5
2018-May-11 01:01N 29°36' W 090°40'2 3.6
2018-May-11 00:30N 29°37' W 090°42'2 3.9
2018-May-11 00:00N 29°35' W 090°43'2 3.5
2018-May-10 23:30N 29°34' W 090°45'1 2.2
2018-May-10 23:00N 29°33' W 090°45'3 5.3
2018-May-10 22:30N 29°32' W 090°48'66 3.5
2018-May-10 03:46N 29°49' W 092°02'2 4.5
2018-May-10 03:21N 29°48' W 092°04'2 4.7
2018-May-10 03:00N 29°48' W 092°06'2 4.6
2018-May-10 02:30N 29°47' W 092°09'2 3.9
2018-May-10 02:00N 29°47' W 092°11'2 3.1
2018-May-10 01:30N 29°47' W 092°12'1 2.1
2018-May-10 01:00N 29°48' W 092°14'1 3.0
2018-May-10 00:30N 29°48' W 092°15'1 1.7
2018-May-10 00:00N 29°49' W 092°16'2 3.7
2018-May-09 23:30N 29°50' W 092°18'2 4.0
2018-May-09 23:00N 29°51' W 092°20'36 4.2
2018-May-09 14:15N 29°56' W 093°01'1 4.3
2018-May-09 14:00N 29°56' W 093°03'2 3.6
2018-May-09 13:30N 29°56' W 093°05'2 4.1
2018-May-09 12:58N 29°56' W 093°07'2 4.3
2018-May-09 12:30N 29°56' W 093°09'2 4.3
2018-May-09 12:00N 29°58' W 093°11'2 4.4
2018-May-09 11:29N 29°59' W 093°13'2 3.9
2018-May-09 11:00N 30°01' W 093°14'2 3.9
2018-May-09 10:30N 30°02' W 093°16'1 2.9
2018-May-09 10:00N 30°04' W 093°16'1 3.0
2018-May-09 09:30N 30°05' W 093°17'1 1.6
2018-May-09 09:00N 30°05' W 093°18'1 2.2
2018-May-09 08:30N 30°06' W 093°19'0 0.1
2018-May-09 08:00N 30°06' W 093°19'0 0.0
2018-May-09 07:30N 30°06' W 093°19'0 0.0
2018-May-09 07:00N 30°06' W 093°19'0 0.0
2018-May-09 06:30N 30°06' W 093°19'0 0.0
2018-May-09 06:00N 30°06' W 093°19'0 0.0
2018-May-09 05:30N 30°06' W 093°19'0 0.0
2018-May-09 05:00N 30°06' W 093°19'0 0.0
2018-May-09 04:30N 30°06' W 093°19'0 0.0
2018-May-09 04:00N 30°06' W 093°19'0 0.0
2018-May-09 03:30N 30°06' W 093°19'0 0.0
2018-May-09 03:00N 30°06' W 093°19'0 0.0
2018-May-09 02:30N 30°06' W 093°19'0 0.0
2018-May-09 02:00N 30°06' W 093°19'0 0.0
2018-May-09 01:30N 30°06' W 093°19'2 3.3
2018-May-09 01:00N 30°05' W 093°20'2 3.8
2018-May-09 00:30N 30°04' W 093°22'1 2.1
2018-May-09 00:00N 30°04' W 093°23'2 3.2
2018-May-08 23:30N 30°04' W 093°25'2 4.1
2018-May-08 23:00N 30°04' W 093°27'2 4.8
2018-May-08 22:30N 30°04' W 093°30'2 4.8
2018-May-08 22:00N 30°04' W 093°33'2 4.8
2018-May-08 21:30N 30°04' W 093°35'3 5.3
2018-May-08 21:00N 30°04' W 093°38'3 5.6
2018-May-08 20:30N 30°04' W 093°42'3 5.4
2018-May-08 19:59N 30°02' W 093°44'3 7.2
2018-May-08 19:30N 29°59' W 093°47'3 7.0
2018-May-08 19:00N 29°58' W 093°51'3 6.5
2018-May-08 18:30N 29°55' W 093°53'4 8.2
2018-May-08 18:00N 29°52' W 093°56'4 7.0
2018-May-08 17:30N 29°49' W 093°58'1 2.4
2018-May-08 17:00N 29°49' W 093°59'2 3.5
2018-May-08 16:30N 29°48' W 094°01'1 2.8
2018-May-08 16:00N 29°47' W 094°02'2 4.5
2018-May-08 15:30N 29°45' W 094°04'2 4.6
2018-May-08 15:00N 29°44' W 094°06'2 4.6
2018-May-08 14:30N 29°42' W 094°08'2 4.4
2018-May-08 14:00N 29°41' W 094°10'2 4.6
2018-May-08 13:30N 29°41' W 094°13'2 4.6
2018-May-08 13:00N 29°39' W 094°15'2 3.5
2018-May-08 12:30N 29°39' W 094°17'0 0.9
2018-May-08 12:00N 29°38' W 094°17'1 1.5
2018-May-08 11:30N 29°38' W 094°18'2 3.1
2018-May-08 11:01N 29°37' W 094°20'2 4.2
2018-May-08 10:30N 29°36' W 094°22'2 4.0
2018-May-08 10:00N 29°36' W 094°24'2 3.3
2018-May-08 09:30N 29°34' W 094°25'0 0.0
2018-May-08 09:00N 29°34' W 094°25'1 1.1
2018-May-08 08:30N 29°34' W 094°25'2 3.5
2018-May-08 08:00N 29°34' W 094°27'2 4.5
2018-May-08 07:30N 29°32' W 094°29'2 4.6
2018-May-08 07:00N 29°31' W 094°31'2 4.8
2018-May-08 06:30N 29°30' W 094°34'2 4.7
2018-May-08 06:00N 29°29' W 094°36'2 4.7
2018-May-08 05:30N 29°28' W 094°39'2 4.7
2018-May-08 04:59N 29°27' W 094°41'2 4.5
2018-May-08 04:30N 29°26' W 094°43'2 3.4
2018-May-08 03:59N 29°24' W 094°45'2 3.7
2018-May-08 03:30N 29°23' W 094°46'2 4.0
2018-May-08 03:00N 29°22' W 094°48'3 5.6
2018-May-08 02:30N 29°22' W 094°51'2 3.9
2018-May-08 01:59N 29°22' W 094°53'0 0.3
2018-May-08 01:30N 29°22' W 094°53'0 0.6
2018-May-08 01:00N 29°23' W 094°54'0 0.0
2018-May-08 00:30N 29°23' W 094°54'0 0.0
2018-May-07 23:53N 29°23' W 094°54'0 0.0
2018-May-07 23:21N 29°23' W 094°54'0 0.0
2018-May-07 22:56N 29°23' W 094°54'0 0.0
2018-May-07 21:23N 29°23' W 094°54'0 0.0
2018-May-07 20:54N 29°23' W 094°54'0 0.0
2018-May-07 20:30N 29°23' W 094°54'0 0.0
2018-May-07 15:45N 29°23' W 094°54'0 0.0
2018-May-07 15:14N 29°23' W 094°54'0 0.0
2018-May-07 14:57N 29°23' W 094°54'0 0.0
2018-May-07 14:28N 29°23' W 094°54'0 0.0
2018-May-07 14:00N 29°23' W 094°54'0 0.0
2018-May-07 13:30N 29°23' W 094°54'0 0.0
2018-May-07 12:59N 29°23' W 094°54'0 0.0
2018-May-07 12:30N 29°23' W 094°54'0 0.0
2018-May-07 11:59N 29°23' W 094°54'0 0.0
2018-May-07 11:30N 29°23' W 094°54'0 0.0
2018-May-07 11:00N 29°23' W 094°54'0 0.0
2018-May-07 10:30N 29°23' W 094°54'0 0.0
2018-May-07 10:00N 29°23' W 094°54'0 0.0
2018-May-07 09:30N 29°23' W 094°54'0 0.0
2018-May-07 09:00N 29°23' W 094°54'0 0.0
2018-May-07 08:30N 29°23' W 094°54'0 0.0
2018-May-07 08:00N 29°23' W 094°54'0 0.0
2018-May-07 07:29N 29°23' W 094°54'0 0.0
2018-May-07 07:00N 29°23' W 094°54'0 0.0
2018-May-07 06:23N 29°23' W 094°54'0 0.0
2018-May-07 05:59N 29°23' W 094°54'0 0.0
2018-May-07 05:18N 29°23' W 094°54'0 0.0
2018-May-07 04:03N 29°23' W 094°54'0 0.1
2018-May-07 03:58N 29°23' W 094°54'0 0.0
2018-May-07 03:30N 29°23' W 094°54'0 0.0
2018-May-07 03:00N 29°23' W 094°54'0 0.0
2018-May-07 02:29N 29°23' W 094°54'0 0.0
2018-May-07 02:00N 29°23' W 094°54'0 0.0
2018-May-07 01:30N 29°23' W 094°54'1 2.7
2018-May-07 01:00N 29°23' W 094°52'0 0.3
2018-May-07 00:26N 29°23' W 094°52'0 0.2
2018-May-07 00:00N 29°23' W 094°52'0 0.0
2018-May-06 23:30N 29°23' W 094°52'0 0.0
2018-May-06 23:00N 29°23' W 094°52'0 0.0
2018-May-06 22:30N 29°23' W 094°52'0 0.0
2018-May-06 21:58N 29°23' W 094°52'0 0.0
2018-May-06 21:29N 29°23' W 094°52'0 0.0
2018-May-06 21:00N 29°23' W 094°52'0 0.0
2018-May-06 20:30N 29°23' W 094°52'0 0.0
2018-May-06 20:00N 29°23' W 094°52'0 0.0
2018-May-06 19:30N 29°23' W 094°52'0 0.0
2018-May-06 19:00N 29°23' W 094°52'0 0.0
2018-May-06 18:30N 29°23' W 094°52'0 0.0
2018-May-06 18:00N 29°23' W 094°52'0 0.0
2018-May-06 17:30N 29°23' W 094°52'0 0.0
2018-May-06 17:00N 29°23' W 094°52'0 0.0
2018-May-06 16:30N 29°23' W 094°52'0 0.0
2018-May-06 16:00N 29°23' W 094°52'0 0.0
2018-May-06 15:30N 29°23' W 094°52'0 0.0
2018-May-06 15:00N 29°23' W 094°52'0 0.0
2018-May-06 14:30N 29°23' W 094°52'0 0.0
2018-May-06 14:00N 29°23' W 094°52'0 0.0
2018-May-06 13:30N 29°23' W 094°52'0 0.0
2018-May-06 13:00N 29°23' W 094°52'0 0.0
2018-May-06 12:30N 29°23' W 094°52'0 0.0
2018-May-06 12:00N 29°23' W 094°52'0 0.0
2018-May-06 11:29N 29°23' W 094°52'0 0.0
2018-May-06 10:59N 29°23' W 094°52'0 0.0
2018-May-06 10:30N 29°23' W 094°52'0 0.0
2018-May-06 09:59N 29°23' W 094°52'0 0.0
2018-May-06 09:28N 29°23' W 094°52'0 0.0
2018-May-06 09:00N 29°23' W 094°52'0 0.0
2018-May-06 08:30N 29°23' W 094°52'0 0.0
2018-May-06 08:00N 29°23' W 094°52'0 0.0
2018-May-06 07:30N 29°23' W 094°52'0 0.0
2018-May-06 07:00N 29°23' W 094°52'0 0.0
2018-May-06 06:30N 29°23' W 094°52'0 0.0
2018-May-06 06:00N 29°23' W 094°52'0 0.0
2018-May-06 05:30N 29°23' W 094°52'0 0.0
2018-May-06 05:00N 29°23' W 094°52'0 0.0
2018-May-06 04:30N 29°23' W 094°52'0 0.0
2018-May-06 04:00N 29°23' W 094°52'0 0.0
2018-May-06 03:29N 29°23' W 094°52'0 0.0
2018-May-06 03:00N 29°23' W 094°52'0 0.0
2018-May-06 02:28N 29°23' W 094°52'0 0.0
2018-May-06 01:58N 29°23' W 094°52'0 0.0
2018-May-06 01:30N 29°23' W 094°52'0 0.0
2018-May-06 01:00N 29°23' W 094°52'0 0.0
2018-May-06 00:30N 29°23' W 094°52'0 0.0
2018-May-06 00:00N 29°23' W 094°52'0 0.0
2018-May-05 23:27N 29°23' W 094°52'0 0.0
2018-May-05 23:00N 29°23' W 094°52'0 0.0
2018-May-05 22:30N 29°23' W 094°52'0 0.0
2018-May-05 21:56N 29°23' W 094°52'0 0.0
2018-May-05 21:29N 29°23' W 094°52'0 0.0
2018-May-05 20:59N 29°23' W 094°52'0 0.0
2018-May-05 20:30N 29°23' W 094°52'0 0.0
2018-May-05 20:00N 29°23' W 094°52'0 0.0
2018-May-05 19:29N 29°23' W 094°52'0 0.0
2018-May-05 19:00N 29°23' W 094°52'0 0.0
2018-May-05 18:30N 29°23' W 094°52'0 0.0
2018-May-05 18:00N 29°23' W 094°52'0 0.0
2018-May-05 17:28N 29°23' W 094°52'0 0.0
2018-May-05 17:00N 29°23' W 094°52'0 0.0
2018-May-05 16:30N 29°23' W 094°52'0 0.0
2018-May-05 16:00N 29°23' W 094°52'0 0.0
2018-May-05 15:28N 29°23' W 094°52'0 0.0
2018-May-05 15:00N 29°23' W 094°52'0 0.0
2018-May-05 14:29N 29°23' W 094°52'0 0.0
2018-May-05 13:58N 29°23' W 094°52'0 0.0
2018-May-05 13:31N 29°23' W 094°52'0 0.0
2018-May-05 13:00N 29°23' W 094°52'0 0.0
2018-May-05 12:31N 29°23' W 094°52'0 0.0
2018-May-05 11:59N 29°23' W 094°52'0 0.0
2018-May-05 11:29N 29°23' W 094°52'0 0.0
2018-May-05 11:01N 29°23' W 094°52'0 0.0
2018-May-05 10:30N 29°23' W 094°52'0 0.0
2018-May-05 09:58N 29°23' W 094°52'0 0.0
2018-May-05 09:30N 29°23' W 094°52'0 0.0
2018-May-05 09:00N 29°23' W 094°52'0 0.0
2018-May-05 08:30N 29°23' W 094°52'0 0.0
2018-May-05 07:59N 29°23' W 094°52'0 0.0
2018-May-05 07:31N 29°23' W 094°52'0 0.0
2018-May-05 07:00N 29°23' W 094°52'0 0.0
2018-May-05 06:30N 29°23' W 094°52'0 0.0
2018-May-05 06:00N 29°23' W 094°52'0 0.0
2018-May-05 05:27N 29°23' W 094°52'0 0.0
2018-May-05 05:01N 29°23' W 094°52'0 0.0
2018-May-05 04:28N 29°23' W 094°52'0 0.0
2018-May-05 04:01N 29°23' W 094°52'0 0.0
2018-May-05 03:29N 29°23' W 094°52'0 0.0
2018-May-05 02:59N 29°23' W 094°52'0 0.0
2018-May-05 02:31N 29°23' W 094°52'0 0.0
2018-May-05 01:57N 29°23' W 094°52'0 0.0
2018-May-05 01:30N 29°23' W 094°52'0 0.0
2018-May-05 01:00N 29°23' W 094°52'0 0.0
2018-May-05 00:29N 29°23' W 094°52'0 0.0
2018-May-05 00:00N 29°23' W 094°52'0 0.0
2018-May-04 23:28N 29°23' W 094°52'0 0.0
2018-May-04 23:00N 29°23' W 094°52'0 0.0
2018-May-04 22:30N 29°23' W 094°52'0 0.0
2018-May-04 21:59N 29°23' W 094°52'0 0.0
2018-May-04 21:30N 29°23' W 094°52'0 0.0
2018-May-04 21:00N 29°23' W 094°52'0 0.0
2018-May-04 20:31N 29°23' W 094°52'0 0.0
2018-May-04 20:00N 29°23' W 094°52'0 0.0
2018-May-04 19:31N 29°23' W 094°52'0 0.0
2018-May-04 18:55N 29°23' W 094°52'0 0.0
2018-May-04 18:31N 29°23' W 094°52'0 0.0
2018-May-04 18:00N 29°23' W 094°52'0 0.0
2018-May-04 17:29N 29°23' W 094°52'0 0.0
2018-May-04 17:00N 29°23' W 094°52'0 0.0
2018-May-04 16:31N 29°23' W 094°52'0 0.0
2018-May-04 16:00N 29°23' W 094°52'0 0.0
2018-May-04 15:31N 29°23' W 094°52'0 0.0
2018-May-04 14:58N 29°23' W 094°52'0 0.0
2018-May-04 14:21N 29°23' W 094°52'0 0.0
2018-May-04 14:00N 29°23' W 094°52'0 0.0
2018-May-04 13:30N 29°23' W 094°52'0 0.0
2018-May-04 13:00N 29°23' W 094°52'0 0.0
2018-May-04 12:31N 29°23' W 094°52'0 0.0
2018-May-04 12:01N 29°23' W 094°52'0 0.0
2018-May-04 11:30N 29°23' W 094°52'0 0.0
2018-May-04 10:59N 29°23' W 094°52'0 0.0
2018-May-04 10:30N 29°23' W 094°52'0 0.0
2018-May-04 10:00N 29°23' W 094°52'0 0.0
2018-May-04 09:31N 29°23' W 094°52'0 0.0
2018-May-04 09:01N 29°23' W 094°52'0 0.0
2018-May-04 08:30N 29°23' W 094°52'0 0.0
2018-May-04 08:00N 29°23' W 094°52'0 0.0
2018-May-04 07:30N 29°23' W 094°52'0 0.0
2018-May-04 07:00N 29°23' W 094°52'0 0.0
2018-May-04 06:30N 29°23' W 094°52'0 0.0
2018-May-04 05:57N 29°23' W 094°52'0 0.0
2018-May-04 05:29N 29°23' W 094°52'0 0.0
2018-May-04 04:58N 29°23' W 094°52'0 0.0
2018-May-04 04:30N 29°23' W 094°52'1 1.5
2018-May-04 03:46N 29°22' W 094°53'0 0.2
2018-May-04 03:29N 29°22' W 094°53'1 2.0
2018-May-04 02:58N 29°23' W 094°52'0 0.0
2018-May-04 02:30N 29°23' W 094°52'0 0.0
2018-May-04 02:01N 29°23' W 094°52'0 0.0
2018-May-04 01:31N 29°23' W 094°52'0 0.0
2018-May-04 01:01N 29°23' W 094°52'0 0.0
2018-May-04 00:30N 29°23' W 094°52'0 0.0
2018-May-04 00:01N 29°23' W 094°52'0 0.0
2018-May-03 23:30N 29°23' W 094°52'0 0.0
2018-May-03 22:59N 29°23' W 094°52'0 0.0
2018-May-03 22:29N 29°23' W 094°52'0 0.0
2018-May-03 21:59N 29°23' W 094°52'0 0.2
2018-May-03 21:27N 29°23' W 094°52'3 6.5
2018-May-03 21:00N 29°22' W 094°49'3 4.4
2018-May-03 20:24N 29°23' W 094°46'0 0.0
2018-May-03 19:15N 29°23' W 094°46'0 0.0
2018-May-03 18:59N 29°23' W 094°46'0 0.7
2018-May-03 18:22N 29°23' W 094°46'2 5.6
2018-May-03 17:56N 29°25' W 094°44'3 5.6
2018-May-03 17:25N 29°27' W 094°41'2 4.8
2018-May-03 16:55N 29°28' W 094°39'2 5.4
2018-May-03 16:30N 29°29' W 094°36'2 3.4
2018-May-03 15:59N 29°30' W 094°35'3 5.5
2018-May-03 15:26N 29°31' W 094°31'2 5.5
2018-May-03 15:00N 29°32' W 094°29'1 1.9
2018-May-03 14:29N 29°33' W 094°28'3 4.2
2018-May-03 13:52N 29°34' W 094°26'0 0.0
2018-May-03 13:20N 29°34' W 094°26'0 0.0
2018-May-03 12:48N 29°34' W 094°26'0 0.0
2018-May-03 12:29N 29°34' W 094°26'0 0.0
2018-May-03 11:56N 29°34' W 094°26'0 0.0
2018-May-03 11:23N 29°34' W 094°26'0 0.0
2018-May-03 10:56N 29°34' W 094°26'1 1.6
2018-May-03 10:30N 29°34' W 094°25'3 3.8
2018-May-03 09:50N 29°36' W 094°23'2 5.5
2018-May-03 09:28N 29°37' W 094°21'3 5.9
2018-May-03 09:00N 29°38' W 094°18'2 3.7
2018-May-03 08:30N 29°39' W 094°16'0 0.4
2018-May-03 08:00N 29°39' W 094°16'3 6.0
2018-May-03 07:30N 29°41' W 094°13'1 1.0
2018-May-03 07:00N 29°41' W 094°12'2 4.0
2018-May-03 06:30N 29°41' W 094°10'1 2.5
2018-May-03 06:01N 29°42' W 094°09'0 0.0
2018-May-03 05:30N 29°42' W 094°09'0 0.2
2018-May-03 05:00N 29°42' W 094°09'0 0.0
2018-May-03 04:30N 29°42' W 094°09'0 0.0
2018-May-03 04:00N 29°42' W 094°09'0 0.0
2018-May-03 03:30N 29°42' W 094°09'0 0.0
2018-May-03 03:00N 29°42' W 094°09'0 0.0
2018-May-03 02:30N 29°42' W 094°09'0 0.0
2018-May-03 02:00N 29°42' W 094°09'0 0.0
2018-May-03 01:30N 29°42' W 094°09'0 0.0
2018-May-03 01:00N 29°42' W 094°09'0 0.0
2018-May-03 00:30N 29°42' W 094°09'0 0.0
2018-May-02 23:59N 29°42' W 094°09'0 0.0
2018-May-02 23:30N 29°42' W 094°09'0 0.0
2018-May-02 23:00N 29°42' W 094°09'0 0.0
2018-May-02 22:30N 29°42' W 094°09'3 5.2
2018-May-02 22:00N 29°44' W 094°06'3 6.7
2018-May-02 21:30N 29°46' W 094°03'3 6.7
2018-May-02 21:00N 29°48' W 094°00'2 4.6
2018-May-02 20:30N 29°49' W 093°58'0 0.0
2018-May-02 19:58N 29°49' W 093°58'0 0.0
2018-May-02 19:30N 29°49' W 093°58'0 0.0
2018-May-02 19:00N 29°49' W 093°58'0 0.0
2018-May-02 18:30N 29°49' W 093°58'0 0.0
2018-May-02 18:00N 29°49' W 093°58'0 0.0
2018-May-02 17:30N 29°49' W 093°58'0 0.0
2018-May-02 16:59N 29°49' W 093°58'0 0.0
2018-May-02 16:30N 29°49' W 093°58'0 0.0
2018-May-02 15:59N 29°49' W 093°58'0 0.0
2018-May-02 15:29N 29°49' W 093°58'0 0.0
2018-May-02 15:00N 29°49' W 093°58'0 0.0
2018-May-02 14:30N 29°49' W 093°58'0 0.0
2018-May-02 14:00N 29°49' W 093°58'1 2.8
2018-May-02 13:30N 29°50' W 093°57'2 4.9
2018-May-02 13:00N 29°53' W 093°56'3 6.0
2018-May-02 12:30N 29°55' W 093°53'3 6.2
2018-May-02 12:00N 29°57' W 093°51'3 5.7
2018-May-02 11:30N 29°59' W 093°49'3 5.9
2018-May-02 10:59N 30°01' W 093°46'3 5.7
2018-May-02 10:30N 30°03' W 093°44'2 4.9
2018-May-02 10:00N 30°04' W 093°41'2 4.4
2018-May-02 09:30N 30°04' W 093°38'3 5.3
2018-May-02 09:00N 30°04' W 093°35'2 4.3
2018-May-02 08:30N 30°04' W 093°33'2 4.7
2018-May-02 08:00N 30°04' W 093°30'2 4.7
2018-May-02 07:30N 30°04' W 093°27'2 4.8
2018-May-02 07:00N 30°04' W 093°25'2 4.7
2018-May-02 06:30N 30°04' W 093°22'2 3.8
2018-May-02 06:00N 30°05' W 093°20'2 3.9
2018-May-02 05:30N 30°06' W 093°19'0 0.0
2018-May-02 05:00N 30°06' W 093°19'0 1.0
2018-May-02 04:30N 30°06' W 093°18'2 3.2
2018-May-02 04:00N 30°05' W 093°17'2 4.4
2018-May-02 03:30N 30°03' W 093°16'3 5.0
2018-May-02 03:00N 30°01' W 093°14'3 5.2
2018-May-02 02:30N 29°59' W 093°12'3 5.5
2018-May-02 02:00N 29°57' W 093°10'3 4.5
2018-May-02 01:27N 29°56' W 093°07'44 4.1
2018-May-01 14:40N 29°49' W 092°17'1 5.1
2018-May-01 14:30N 29°49' W 092°16'2 4.7
2018-May-01 14:00N 29°48' W 092°14'2 3.1
2018-May-01 13:30N 29°47' W 092°12'1 1.4
2018-May-01 13:00N 29°47' W 092°12'0 0.0
2018-May-01 12:30N 29°47' W 092°12'0 0.0
2018-May-01 12:00N 29°47' W 092°12'0 0.0
2018-May-01 11:30N 29°47' W 092°12'0 0.0
2018-May-01 11:00N 29°47' W 092°12'0 0.0
2018-May-01 10:30N 29°47' W 092°12'1 1.0
2018-May-01 10:00N 29°47' W 092°11'3 5.5
2018-May-01 09:29N 29°47' W 092°08'3 6.0
2018-May-01 09:00N 29°48' W 092°05'3 5.3
2018-May-01 08:30N 29°49' W 092°02'2 4.6
2018-May-01 08:00N 29°50' W 091°59'3 4.8
2018-May-01 07:28N 29°51' W 091°56'  
Track history (hours):
 
Tides and Currents Weather Stations Pressure Air Temp Water Temp Dewpoint Dewpoint Depression Visibility Wind Speed Wind Dir Waves Ship Positions

M/V Wayne T Mosley

Owner: Blessey Enterprises Inc., Harahan, LA. More information available from US FCC via Universal Licensing System and Coast Guard Vessel Documentation Center.

Last reported at 2018-May-11 04:09 UTC. Time now 2018-May-22 21:36 UTC.
Position N 29°33' W 090°24'.
Warning: this ship's position is 11 days out of date.

Length 25 m; draft 3 m.

Type: Towing. MMSI: 367424750.

Date/timePositionNaut miles runAvg speedWind from/ knotsBaromVisibWave heightAir tempDewpointWater temp
2018-May-11 04:09N 29°33' W 090°24'1 4.7
2018-May-11 03:59N 29°33' W 090°25'2 4.8
2018-May-11 03:29N 29°33' W 090°27'2 5.3
2018-May-11 03:00N 29°34' W 090°30'3 5.2
2018-May-11 02:30N 29°34' W 090°33'2 4.6
2018-May-11 02:01N 29°35' W 090°36'2 4.3
2018-May-11 01:31N 29°35' W 090°38'2 4.5
2018-May-11 01:01N 29°36' W 090°40'2 3.6
2018-May-11 00:30N 29°37' W 090°42'2 3.9
2018-May-11 00:00N 29°35' W 090°43'2 3.5
2018-May-10 23:30N 29°34' W 090°45'1 2.2
2018-May-10 23:00N 29°33' W 090°45'3 5.3
2018-May-10 22:30N 29°32' W 090°48'66 3.5
2018-May-10 03:46N 29°49' W 092°02'2 4.5
2018-May-10 03:21N 29°48' W 092°04'2 4.7
2018-May-10 03:00N 29°48' W 092°06'2 4.6
2018-May-10 02:30N 29°47' W 092°09'2 3.9
2018-May-10 02:00N 29°47' W 092°11'2 3.1
2018-May-10 01:30N 29°47' W 092°12'1 2.1
2018-May-10 01:00N 29°48' W 092°14'1 3.0
2018-May-10 00:30N 29°48' W 092°15'1 1.7
2018-May-10 00:00N 29°49' W 092°16'2 3.7
2018-May-09 23:30N 29°50' W 092°18'2 4.0
2018-May-09 23:00N 29°51' W 092°20'36 4.2
2018-May-09 14:15N 29°56' W 093°01'1 4.3
2018-May-09 14:00N 29°56' W 093°03'2 3.6
2018-May-09 13:30N 29°56' W 093°05'2 4.1
2018-May-09 12:58N 29°56' W 093°07'2 4.3
2018-May-09 12:30N 29°56' W 093°09'2 4.3
2018-May-09 12:00N 29°58' W 093°11'2 4.4
2018-May-09 11:29N 29°59' W 093°13'2 3.9
2018-May-09 11:00N 30°01' W 093°14'2 3.9
2018-May-09 10:30N 30°02' W 093°16'1 2.9
2018-May-09 10:00N 30°04' W 093°16'1 3.0
2018-May-09 09:30N 30°05' W 093°17'1 1.6
2018-May-09 09:00N 30°05' W 093°18'1 2.2
2018-May-09 08:30N 30°06' W 093°19'0 0.1
2018-May-09 08:00N 30°06' W 093°19'0 0.0
2018-May-09 07:30N 30°06' W 093°19'0 0.0
2018-May-09 07:00N 30°06' W 093°19'0 0.0
2018-May-09 06:30N 30°06' W 093°19'0 0.0
2018-May-09 06:00N 30°06' W 093°19'0 0.0
2018-May-09 05:30N 30°06' W 093°19'0 0.0
2018-May-09 05:00N 30°06' W 093°19'0 0.0
2018-May-09 04:30N 30°06' W 093°19'0 0.0
2018-May-09 04:00N 30°06' W 093°19'0 0.0
2018-May-09 03:30N 30°06' W 093°19'0 0.0
2018-May-09 03:00N 30°06' W 093°19'0 0.0
2018-May-09 02:30N 30°06' W 093°19'0 0.0
2018-May-09 02:00N 30°06' W 093°19'0 0.0
2018-May-09 01:30N 30°06' W 093°19'2 3.3
2018-May-09 01:00N 30°05' W 093°20'2 3.8
2018-May-09 00:30N 30°04' W 093°22'1 2.1
2018-May-09 00:00N 30°04' W 093°23'2 3.2
2018-May-08 23:30N 30°04' W 093°25'2 4.1
2018-May-08 23:00N 30°04' W 093°27'2 4.8
2018-May-08 22:30N 30°04' W 093°30'2 4.8
2018-May-08 22:00N 30°04' W 093°33'2 4.8
2018-May-08 21:30N 30°04' W 093°35'3 5.3
2018-May-08 21:00N 30°04' W 093°38'3 5.6
2018-May-08 20:30N 30°04' W 093°42'3 5.4
2018-May-08 19:59N 30°02' W 093°44'3 7.2
2018-May-08 19:30N 29°59' W 093°47'3 7.0
2018-May-08 19:00N 29°58' W 093°51'3 6.5
2018-May-08 18:30N 29°55' W 093°53'4 8.2
2018-May-08 18:00N 29°52' W 093°56'4 7.0
2018-May-08 17:30N 29°49' W 093°58'1 2.4
2018-May-08 17:00N 29°49' W 093°59'2 3.5
2018-May-08 16:30N 29°48' W 094°01'1 2.8
2018-May-08 16:00N 29°47' W 094°02'2 4.5
2018-May-08 15:30N 29°45' W 094°04'2 4.6
2018-May-08 15:00N 29°44' W 094°06'2 4.6
2018-May-08 14:30N 29°42' W 094°08'2 4.4
2018-May-08 14:00N 29°41' W 094°10'2 4.6
2018-May-08 13:30N 29°41' W 094°13'2 4.6
2018-May-08 13:00N 29°39' W 094°15'2 3.5
2018-May-08 12:30N 29°39' W 094°17'0 0.9
2018-May-08 12:00N 29°38' W 094°17'1 1.5
2018-May-08 11:30N 29°38' W 094°18'2 3.1
2018-May-08 11:01N 29°37' W 094°20'2 4.2
2018-May-08 10:30N 29°36' W 094°22'2 4.0
2018-May-08 10:00N 29°36' W 094°24'2 3.3
2018-May-08 09:30N 29°34' W 094°25'0 0.0
2018-May-08 09:00N 29°34' W 094°25'1 1.1
2018-May-08 08:30N 29°34' W 094°25'2 3.5
2018-May-08 08:00N 29°34' W 094°27'2 4.5
2018-May-08 07:30N 29°32' W 094°29'2 4.6
2018-May-08 07:00N 29°31' W 094°31'2 4.8
2018-May-08 06:30N 29°30' W 094°34'2 4.7
2018-May-08 06:00N 29°29' W 094°36'2 4.7
2018-May-08 05:30N 29°28' W 094°39'2 4.7
2018-May-08 04:59N 29°27' W 094°41'2 4.5
2018-May-08 04:30N 29°26' W 094°43'2 3.4
2018-May-08 03:59N 29°24' W 094°45'2 3.7
2018-May-08 03:30N 29°23' W 094°46'2 4.0
2018-May-08 03:00N 29°22' W 094°48'3 5.6
2018-May-08 02:30N 29°22' W 094°51'2 3.9
2018-May-08 01:59N 29°22' W 094°53'0 0.3
2018-May-08 01:30N 29°22' W 094°53'0 0.6
2018-May-08 01:00N 29°23' W 094°54'0 0.0
2018-May-08 00:30N 29°23' W 094°54'0 0.0
2018-May-07 23:53N 29°23' W 094°54'0 0.0
2018-May-07 23:21N 29°23' W 094°54'0 0.0
2018-May-07 22:56N 29°23' W 094°54'0 0.0
2018-May-07 21:23N 29°23' W 094°54'0 0.0
2018-May-07 20:54N 29°23' W 094°54'0 0.0
2018-May-07 20:30N 29°23' W 094°54'0 0.0
2018-May-07 15:45N 29°23' W 094°54'0 0.0
2018-May-07 15:14N 29°23' W 094°54'0 0.0
2018-May-07 14:57N 29°23' W 094°54'0 0.0
2018-May-07 14:28N 29°23' W 094°54'0 0.0
2018-May-07 14:00N 29°23' W 094°54'0 0.0
2018-May-07 13:30N 29°23' W 094°54'0 0.0
2018-May-07 12:59N 29°23' W 094°54'0 0.0
2018-May-07 12:30N 29°23' W 094°54'0 0.0
2018-May-07 11:59N 29°23' W 094°54'0 0.0
2018-May-07 11:30N 29°23' W 094°54'0 0.0
2018-May-07 11:00N 29°23' W 094°54'0 0.0
2018-May-07 10:30N 29°23' W 094°54'0 0.0
2018-May-07 10:00N 29°23' W 094°54'0 0.0
2018-May-07 09:30N 29°23' W 094°54'0 0.0
2018-May-07 09:00N 29°23' W 094°54'0 0.0
2018-May-07 08:30N 29°23' W 094°54'0 0.0
2018-May-07 08:00N 29°23' W 094°54'0 0.0
2018-May-07 07:29N 29°23' W 094°54'0 0.0
2018-May-07 07:00N 29°23' W 094°54'0 0.0
2018-May-07 06:23N 29°23' W 094°54'0 0.0
2018-May-07 05:59N 29°23' W 094°54'0 0.0
2018-May-07 05:18N 29°23' W 094°54'0 0.0
2018-May-07 04:03N 29°23' W 094°54'0 0.1
2018-May-07 03:58N 29°23' W 094°54'0 0.0
2018-May-07 03:30N 29°23' W 094°54'0 0.0
2018-May-07 03:00N 29°23' W 094°54'0 0.0
2018-May-07 02:29N 29°23' W 094°54'0 0.0
2018-May-07 02:00N 29°23' W 094°54'0 0.0
2018-May-07 01:30N 29°23' W 094°54'1 2.7
2018-May-07 01:00N 29°23' W 094°52'0 0.3
2018-May-07 00:26N 29°23' W 094°52'0 0.2
2018-May-07 00:00N 29°23' W 094°52'0 0.0
2018-May-06 23:30N 29°23' W 094°52'0 0.0
2018-May-06 23:00N 29°23' W 094°52'0 0.0
2018-May-06 22:30N 29°23' W 094°52'0 0.0
2018-May-06 21:58N 29°23' W 094°52'0 0.0
2018-May-06 21:29N 29°23' W 094°52'0 0.0
2018-May-06 21:00N 29°23' W 094°52'0 0.0
2018-May-06 20:30N 29°23' W 094°52'0 0.0
2018-May-06 20:00N 29°23' W 094°52'0 0.0
2018-May-06 19:30N 29°23' W 094°52'0 0.0
2018-May-06 19:00N 29°23' W 094°52'0 0.0
2018-May-06 18:30N 29°23' W 094°52'0 0.0
2018-May-06 18:00N 29°23' W 094°52'0 0.0
2018-May-06 17:30N 29°23' W 094°52'0 0.0
2018-May-06 17:00N 29°23' W 094°52'0 0.0
2018-May-06 16:30N 29°23' W 094°52'0 0.0
2018-May-06 16:00N 29°23' W 094°52'0 0.0
2018-May-06 15:30N 29°23' W 094°52'0 0.0
2018-May-06 15:00N 29°23' W 094°52'0 0.0
2018-May-06 14:30N 29°23' W 094°52'0 0.0
2018-May-06 14:00N 29°23' W 094°52'0 0.0
2018-May-06 13:30N 29°23' W 094°52'0 0.0
2018-May-06 13:00N 29°23' W 094°52'0 0.0
2018-May-06 12:30N 29°23' W 094°52'0 0.0
2018-May-06 12:00N 29°23' W 094°52'0 0.0
2018-May-06 11:29N 29°23' W 094°52'0 0.0
2018-May-06 10:59N 29°23' W 094°52'0 0.0
2018-May-06 10:30N 29°23' W 094°52'0 0.0
2018-May-06 09:59N 29°23' W 094°52'0 0.0
2018-May-06 09:28N 29°23' W 094°52'0 0.0
2018-May-06 09:00N 29°23' W 094°52'0 0.0
2018-May-06 08:30N 29°23' W 094°52'0 0.0
2018-May-06 08:00N 29°23' W 094°52'0 0.0
2018-May-06 07:30N 29°23' W 094°52'0 0.0
2018-May-06 07:00N 29°23' W 094°52'0 0.0
2018-May-06 06:30N 29°23' W 094°52'0 0.0
2018-May-06 06:00N 29°23' W 094°52'0 0.0
2018-May-06 05:30N 29°23' W 094°52'0 0.0
2018-May-06 05:00N 29°23' W 094°52'0 0.0
2018-May-06 04:30N 29°23' W 094°52'0 0.0
2018-May-06 04:00N 29°23' W 094°52'0 0.0
2018-May-06 03:29N 29°23' W 094°52'0 0.0
2018-May-06 03:00N 29°23' W 094°52'0 0.0
2018-May-06 02:28N 29°23' W 094°52'0 0.0
2018-May-06 01:58N 29°23' W 094°52'0 0.0
2018-May-06 01:30N 29°23' W 094°52'0 0.0
2018-May-06 01:00N 29°23' W 094°52'0 0.0
2018-May-06 00:30N 29°23' W 094°52'0 0.0
2018-May-06 00:00N 29°23' W 094°52'0 0.0
2018-May-05 23:27N 29°23' W 094°52'0 0.0
2018-May-05 23:00N 29°23' W 094°52'0 0.0
2018-May-05 22:30N 29°23' W 094°52'0 0.0
2018-May-05 21:56N 29°23' W 094°52'0 0.0
2018-May-05 21:29N 29°23' W 094°52'0 0.0
2018-May-05 20:59N 29°23' W 094°52'0 0.0
2018-May-05 20:30N 29°23' W 094°52'0 0.0
2018-May-05 20:00N 29°23' W 094°52'0 0.0
2018-May-05 19:29N 29°23' W 094°52'0 0.0
2018-May-05 19:00N 29°23' W 094°52'0 0.0
2018-May-05 18:30N 29°23' W 094°52'0 0.0
2018-May-05 18:00N 29°23' W 094°52'0 0.0
2018-May-05 17:28N 29°23' W 094°52'0 0.0
2018-May-05 17:00N 29°23' W 094°52'0 0.0
2018-May-05 16:30N 29°23' W 094°52'0 0.0
2018-May-05 16:00N 29°23' W 094°52'0 0.0
2018-May-05 15:28N 29°23' W 094°52'0 0.0
2018-May-05 15:00N 29°23' W 094°52'0 0.0
2018-May-05 14:29N 29°23' W 094°52'0 0.0
2018-May-05 13:58N 29°23' W 094°52'0 0.0
2018-May-05 13:31N 29°23' W 094°52'0 0.0
2018-May-05 13:00N 29°23' W 094°52'0 0.0
2018-May-05 12:31N 29°23' W 094°52'0 0.0
2018-May-05 11:59N 29°23' W 094°52'0 0.0
2018-May-05 11:29N 29°23' W 094°52'0 0.0
2018-May-05 11:01N 29°23' W 094°52'0 0.0
2018-May-05 10:30N 29°23' W 094°52'0 0.0
2018-May-05 09:58N 29°23' W 094°52'0 0.0
2018-May-05 09:30N 29°23' W 094°52'0 0.0
2018-May-05 09:00N 29°23' W 094°52'0 0.0
2018-May-05 08:30N 29°23' W 094°52'0 0.0
2018-May-05 07:59N 29°23' W 094°52'0 0.0
2018-May-05 07:31N 29°23' W 094°52'0 0.0
2018-May-05 07:00N 29°23' W 094°52'0 0.0
2018-May-05 06:30N 29°23' W 094°52'0 0.0
2018-May-05 06:00N 29°23' W 094°52'0 0.0
2018-May-05 05:27N 29°23' W 094°52'0 0.0
2018-May-05 05:01N 29°23' W 094°52'0 0.0
2018-May-05 04:28N 29°23' W 094°52'0 0.0
2018-May-05 04:01N 29°23' W 094°52'0 0.0
2018-May-05 03:29N 29°23' W 094°52'0 0.0
2018-May-05 02:59N 29°23' W 094°52'0 0.0
2018-May-05 02:31N 29°23' W 094°52'0 0.0
2018-May-05 01:57N 29°23' W 094°52'0 0.0
2018-May-05 01:30N 29°23' W 094°52'0 0.0
2018-May-05 01:00N 29°23' W 094°52'0 0.0
2018-May-05 00:29N 29°23' W 094°52'0 0.0
2018-May-05 00:00N 29°23' W 094°52'0 0.0
2018-May-04 23:28N 29°23' W 094°52'0 0.0
2018-May-04 23:00N 29°23' W 094°52'0 0.0
2018-May-04 22:30N 29°23' W 094°52'0 0.0
2018-May-04 21:59N 29°23' W 094°52'0 0.0
2018-May-04 21:30N 29°23' W 094°52'0 0.0
2018-May-04 21:00N 29°23' W 094°52'0 0.0
2018-May-04 20:31N 29°23' W 094°52'0 0.0
2018-May-04 20:00N 29°23' W 094°52'0 0.0
2018-May-04 19:31N 29°23' W 094°52'0 0.0
2018-May-04 18:55N 29°23' W 094°52'0 0.0
2018-May-04 18:31N 29°23' W 094°52'0 0.0
2018-May-04 18:00N 29°23' W 094°52'0 0.0
2018-May-04 17:29N 29°23' W 094°52'0 0.0
2018-May-04 17:00N 29°23' W 094°52'0 0.0
2018-May-04 16:31N 29°23' W 094°52'0 0.0
2018-May-04 16:00N 29°23' W 094°52'0 0.0
2018-May-04 15:31N 29°23' W 094°52'0 0.0
2018-May-04 14:58N 29°23' W 094°52'0 0.0
2018-May-04 14:21N 29°23' W 094°52'0 0.0
2018-May-04 14:00N 29°23' W 094°52'0 0.0
2018-May-04 13:30N 29°23' W 094°52'0 0.0
2018-May-04 13:00N 29°23' W 094°52'0 0.0
2018-May-04 12:31N 29°23' W 094°52'0 0.0
2018-May-04 12:01N 29°23' W 094°52'0 0.0
2018-May-04 11:30N 29°23' W 094°52'0 0.0
2018-May-04 10:59N 29°23' W 094°52'0 0.0
2018-May-04 10:30N 29°23' W 094°52'0 0.0
2018-May-04 10:00N 29°23' W 094°52'0 0.0
2018-May-04 09:31N 29°23' W 094°52'0 0.0
2018-May-04 09:01N 29°23' W 094°52'0 0.0
2018-May-04 08:30N 29°23' W 094°52'0 0.0
2018-May-04 08:00N 29°23' W 094°52'0 0.0
2018-May-04 07:30N 29°23' W 094°52'0 0.0
2018-May-04 07:00N 29°23' W 094°52'0 0.0
2018-May-04 06:30N 29°23' W 094°52'0 0.0
2018-May-04 05:57N 29°23' W 094°52'0 0.0
2018-May-04 05:29N 29°23' W 094°52'0 0.0
2018-May-04 04:58N 29°23' W 094°52'0 0.0
2018-May-04 04:30N 29°23' W 094°52'1 1.5
2018-May-04 03:46N 29°22' W 094°53'0 0.2
2018-May-04 03:29N 29°22' W 094°53'1 2.0
2018-May-04 02:58N 29°23' W 094°52'0 0.0
2018-May-04 02:30N 29°23' W 094°52'0 0.0
2018-May-04 02:01N 29°23' W 094°52'0 0.0
2018-May-04 01:31N 29°23' W 094°52'0 0.0
2018-May-04 01:01N 29°23' W 094°52'0 0.0
2018-May-04 00:30N 29°23' W 094°52'0 0.0
2018-May-04 00:01N 29°23' W 094°52'0 0.0
2018-May-03 23:30N 29°23' W 094°52'0 0.0
2018-May-03 22:59N 29°23' W 094°52'0 0.0
2018-May-03 22:29N 29°23' W 094°52'0 0.0
2018-May-03 21:59N 29°23' W 094°52'0 0.2
2018-May-03 21:27N 29°23' W 094°52'3 6.5
2018-May-03 21:00N 29°22' W 094°49'3 4.4
2018-May-03 20:24N 29°23' W 094°46'0 0.0
2018-May-03 19:15N 29°23' W 094°46'0 0.0
2018-May-03 18:59N 29°23' W 094°46'0 0.7
2018-May-03 18:22N 29°23' W 094°46'2 5.6
2018-May-03 17:56N 29°25' W 094°44'3 5.6
2018-May-03 17:25N 29°27' W 094°41'2 4.8
2018-May-03 16:55N 29°28' W 094°39'2 5.4
2018-May-03 16:30N 29°29' W 094°36'2 3.4
2018-May-03 15:59N 29°30' W 094°35'3 5.5
2018-May-03 15:26N 29°31' W 094°31'2 5.5
2018-May-03 15:00N 29°32' W 094°29'1 1.9
2018-May-03 14:29N 29°33' W 094°28'3 4.2
2018-May-03 13:52N 29°34' W 094°26'0 0.0
2018-May-03 13:20N 29°34' W 094°26'0 0.0
2018-May-03 12:48N 29°34' W 094°26'0 0.0
2018-May-03 12:29N 29°34' W 094°26'0 0.0
2018-May-03 11:56N 29°34' W 094°26'0 0.0
2018-May-03 11:23N 29°34' W 094°26'0 0.0
2018-May-03 10:56N 29°34' W 094°26'1 1.6
2018-May-03 10:30N 29°34' W 094°25'3 3.8
2018-May-03 09:50N 29°36' W 094°23'2 5.5
2018-May-03 09:28N 29°37' W 094°21'3 5.9
2018-May-03 09:00N 29°38' W 094°18'2 3.7
2018-May-03 08:30N 29°39' W 094°16'0 0.4
2018-May-03 08:00N 29°39' W 094°16'3 6.0
2018-May-03 07:30N 29°41' W 094°13'1 1.0
2018-May-03 07:00N 29°41' W 094°12'2 4.0
2018-May-03 06:30N 29°41' W 094°10'1 2.5
2018-May-03 06:01N 29°42' W 094°09'0 0.0
2018-May-03 05:30N 29°42' W 094°09'0 0.2
2018-May-03 05:00N 29°42' W 094°09'0 0.0
2018-May-03 04:30N 29°42' W 094°09'0 0.0
2018-May-03 04:00N 29°42' W 094°09'0 0.0
2018-May-03 03:30N 29°42' W 094°09'0 0.0
2018-May-03 03:00N 29°42' W 094°09'0 0.0
2018-May-03 02:30N 29°42' W 094°09'0 0.0
2018-May-03 02:00N 29°42' W 094°09'0 0.0
2018-May-03 01:30N 29°42' W 094°09'0 0.0
2018-May-03 01:00N 29°42' W 094°09'0 0.0
2018-May-03 00:30N 29°42' W 094°09'0 0.0
2018-May-02 23:59N 29°42' W 094°09'0 0.0
2018-May-02 23:30N 29°42' W 094°09'0 0.0
2018-May-02 23:00N 29°42' W 094°09'0 0.0
2018-May-02 22:30N 29°42' W 094°09'3 5.2
2018-May-02 22:00N 29°44' W 094°06'3 6.7
2018-May-02 21:30N 29°46' W 094°03'3 6.7
2018-May-02 21:00N 29°48' W 094°00'2 4.6
2018-May-02 20:30N 29°49' W 093°58'0 0.0
2018-May-02 19:58N 29°49' W 093°58'0 0.0
2018-May-02 19:30N 29°49' W 093°58'0 0.0
2018-May-02 19:00N 29°49' W 093°58'0 0.0
2018-May-02 18:30N 29°49' W 093°58'0 0.0
2018-May-02 18:00N 29°49' W 093°58'0 0.0
2018-May-02 17:30N 29°49' W 093°58'0 0.0
2018-May-02 16:59N 29°49' W 093°58'0 0.0
2018-May-02 16:30N 29°49' W 093°58'0 0.0
2018-May-02 15:59N 29°49' W 093°58'0 0.0
2018-May-02 15:29N 29°49' W 093°58'0 0.0
2018-May-02 15:00N 29°49' W 093°58'0 0.0
2018-May-02 14:30N 29°49' W 093°58'0 0.0
2018-May-02 14:00N 29°49' W 093°58'1 2.8
2018-May-02 13:30N 29°50' W 093°57'2 4.9
2018-May-02 13:00N 29°53' W 093°56'3 6.0
2018-May-02 12:30N 29°55' W 093°53'3 6.2
2018-May-02 12:00N 29°57' W 093°51'3 5.7
2018-May-02 11:30N 29°59' W 093°49'3 5.9
2018-May-02 10:59N 30°01' W 093°46'3 5.7
2018-May-02 10:30N 30°03' W 093°44'2 4.9
2018-May-02 10:00N 30°04' W 093°41'2 4.4
2018-May-02 09:30N 30°04' W 093°38'3 5.3
2018-May-02 09:00N 30°04' W 093°35'2 4.3
2018-May-02 08:30N 30°04' W 093°33'2 4.7
2018-May-02 08:00N 30°04' W 093°30'2 4.7
2018-May-02 07:30N 30°04' W 093°27'2 4.8
2018-May-02 07:00N 30°04' W 093°25'2 4.7
2018-May-02 06:30N 30°04' W 093°22'2 3.8
2018-May-02 06:00N 30°05' W 093°20'2 3.9
2018-May-02 05:30N 30°06' W 093°19'0 0.0
2018-May-02 05:00N 30°06' W 093°19'0 1.0
2018-May-02 04:30N 30°06' W 093°18'2 3.2
2018-May-02 04:00N 30°05' W 093°17'2 4.4
2018-May-02 03:30N 30°03' W 093°16'3 5.0
2018-May-02 03:00N 30°01' W 093°14'3 5.2
2018-May-02 02:30N 29°59' W 093°12'3 5.5
2018-May-02 02:00N 29°57' W 093°10'3 4.5
2018-May-02 01:27N 29°56' W 093°07'44 4.1
2018-May-01 14:40N 29°49' W 092°17'1 5.1
2018-May-01 14:30N 29°49' W 092°16'2 4.7
2018-May-01 14:00N 29°48' W 092°14'2 3.1
2018-May-01 13:30N 29°47' W 092°12'1 1.4
2018-May-01 13:00N 29°47' W 092°12'0 0.0
2018-May-01 12:30N 29°47' W 092°12'0 0.0
2018-May-01 12:00N 29°47' W 092°12'0 0.0
2018-May-01 11:30N 29°47' W 092°12'0 0.0
2018-May-01 11:00N 29°47' W 092°12'0 0.0
2018-May-01 10:30N 29°47' W 092°12'1 1.0
2018-May-01 10:00N 29°47' W 092°11'3 5.5
2018-May-01 09:29N 29°47' W 092°08'3 6.0
2018-May-01 09:00N 29°48' W 092°05'3 5.3
2018-May-01 08:30N 29°49' W 092°02'2 4.6
2018-May-01 08:00N 29°50' W 091°59'3 4.8
2018-May-01 07:28N 29°51' W 091°56'  

Dump ship's entire track history